createdAt,value
2022-10-29T00:02:56.469Z,9.80
2022-10-29T00:08:18.269Z,9.15
2022-10-29T00:13:41.014Z,8.88
2022-10-29T00:19:03.049Z,9.27
2022-10-29T00:24:24.864Z,9.10
2022-10-29T00:29:46.676Z,9.35
2022-10-29T00:35:08.955Z,10.02
2022-10-29T00:40:31.096Z,9.38
2022-10-29T00:45:57.666Z,9.13
2022-10-29T00:56:54.746Z,8.68
2022-10-29T01:02:17.365Z,9.07
2022-10-29T01:07:39.631Z,9.38
2022-10-29T01:13:31.098Z,9.45
2022-10-29T01:19:13.652Z,8.98
2022-10-29T01:24:44.432Z,8.57
2022-10-29T01:30:09.344Z,9.02
2022-10-29T01:35:46.572Z,8.30
2022-10-29T01:41:34.056Z,9.00
2022-10-29T01:47:00.978Z,8.25
2022-10-29T01:52:24.167Z,8.85
2022-10-29T01:57:46.146Z,8.80
2022-10-29T02:03:10.873Z,7.90
2022-10-29T02:09:05.160Z,8.57
2022-10-29T02:14:36.370Z,8.00
2022-10-29T02:19:58.187Z,7.63
2022-10-29T02:25:20.077Z,8.73
2022-10-29T02:30:41.914Z,8.23
2022-10-29T02:36:04.114Z,7.95
2022-10-29T02:41:25.932Z,8.40
2022-10-29T02:46:47.759Z,8.10
2022-10-29T02:52:09.600Z,8.32
2022-10-29T02:57:31.496Z,8.23
2022-10-29T03:02:53.483Z,7.45
2022-10-29T03:08:15.610Z,9.23
2022-10-29T03:19:04.657Z,7.90
2022-10-29T03:24:26.473Z,7.80
2022-10-29T03:29:48.279Z,7.82
2022-10-29T03:35:12.017Z,8.50
2022-10-29T03:40:34.080Z,7.72
2022-10-29T03:45:57.758Z,7.80
2022-10-29T03:51:19.615Z,9.32
2022-10-29T03:56:41.455Z,8.10
2022-10-29T04:02:03.662Z,7.93
2022-10-29T04:07:25.680Z,7.65
2022-10-29T04:12:47.602Z,6.95
2022-10-29T04:18:10.652Z,7.88
2022-10-29T04:29:14.349Z,7.32
2022-10-29T04:34:36.168Z,6.78
2022-10-29T04:39:58.252Z,6.55
2022-10-29T04:45:20.084Z,7.00
2022-10-29T04:50:41.897Z,6.55
2022-10-29T04:56:03.898Z,7.03
2022-10-29T05:01:25.972Z,7.10
2022-10-29T05:06:47.938Z,6.03
2022-10-29T05:12:09.748Z,6.50
2022-10-29T05:17:31.871Z,6.07
2022-10-29T05:23:06.323Z,6.07
2022-10-29T05:28:28.183Z,6.50
2022-10-29T05:33:52.495Z,5.97
2022-10-29T05:39:17.408Z,5.85
2022-10-29T05:44:39.411Z,5.90
2022-10-29T05:50:01.221Z,5.90
2022-10-29T05:55:23.506Z,5.78
2022-10-29T06:00:45.377Z,6.57
2022-10-29T06:06:07.961Z,5.47
2022-10-29T06:11:29.876Z,5.97
2022-10-29T06:16:51.734Z,5.97
2022-10-29T06:22:13.547Z,5.70
2022-10-29T06:27:37.292Z,6.05
2022-10-29T06:33:00.053Z,6.10
2022-10-29T06:38:21.882Z,5.50
2022-10-29T06:43:44.054Z,6.13
2022-10-29T06:49:05.850Z,5.95
2022-10-29T06:54:27.678Z,5.60
2022-10-29T06:59:49.777Z,5.85
2022-10-29T07:05:11.935Z,5.82
2022-10-29T07:10:34.189Z,5.20
2022-10-29T07:15:56.088Z,5.82
2022-10-29T07:21:17.887Z,5.45
2022-10-29T07:26:39.804Z,5.70
2022-10-29T07:32:01.657Z,4.93
2022-10-29T07:37:23.501Z,5.57
2022-10-29T07:42:45.320Z,5.50
2022-10-29T07:48:07.332Z,5.20
2022-10-29T07:53:29.326Z,4.63
2022-10-29T07:58:51.159Z,5.55
2022-10-29T08:04:13.124Z,5.32
2022-10-29T08:09:35.054Z,5.35
2022-10-29T08:14:56.911Z,5.47
2022-10-29T08:20:19.812Z,5.70
2022-10-29T08:25:42.936Z,5.45
2022-10-29T08:31:04.992Z,5.88
2022-10-29T08:36:26.820Z,5.78
2022-10-29T08:41:51.589Z,6.30
2022-10-29T08:47:17.788Z,6.45
2022-10-29T08:52:52.995Z,6.75
2022-10-29T08:58:34.142Z,6.15
2022-10-29T09:03:56.045Z,6.03
2022-10-29T09:09:38.564Z,9.82
2022-10-29T09:15:23.284Z,6.75
2022-10-29T09:21:22.640Z,6.75
2022-10-29T09:27:20.911Z,7.05
2022-10-29T09:32:57.441Z,7.13
2022-10-29T09:38:24.001Z,6.72
2022-10-29T09:43:45.801Z,7.68
2022-10-29T09:49:39.583Z,8.75
2022-10-29T09:55:05.386Z,8.38
2022-10-29T10:00:32.018Z,7.80
2022-10-29T10:05:58.396Z,8.40
2022-10-29T10:16:42.100Z,9.50
2022-10-29T10:22:05.569Z,10.05
2022-10-29T10:27:31.140Z,11.05
2022-10-29T10:32:53.271Z,11.97
2022-10-29T10:38:15.939Z,12.55
2022-10-29T10:43:41.313Z,12.55
2022-10-29T10:49:17.777Z,12.57
2022-10-29T10:54:56.080Z,13.23
2022-10-29T11:00:21.117Z,12.70
2022-10-29T11:06:01.588Z,12.02
2022-10-29T11:11:30.997Z,10.75
2022-10-29T11:16:58.340Z,10.55
2022-10-29T11:22:44.249Z,10.57
2022-10-29T11:28:24.069Z,11.07
2022-10-29T11:33:56.614Z,10.63
2022-10-29T11:39:26.772Z,10.23
2022-10-29T11:44:48.792Z,10.07
2022-10-29T11:50:10.556Z,10.27
2022-10-29T11:56:21.310Z,9.95
2022-10-29T12:01:55.161Z,10.27
2022-10-29T12:07:39.714Z,10.40
2022-10-29T12:13:24.627Z,9.55
2022-10-29T12:19:07.061Z,9.35
2022-10-29T12:25:01.493Z,9.43
2022-10-29T12:30:24.197Z,7.68
2022-10-29T12:35:56.145Z,9.05
2022-10-29T12:41:25.329Z,7.22
2022-10-29T12:46:52.855Z,8.70
2022-10-29T12:52:53.122Z,7.75
2022-10-29T12:58:44.034Z,8.13
2022-10-29T13:04:23.007Z,7.72
2022-10-29T13:09:48.267Z,7.60
2022-10-29T13:15:12.822Z,8.17
2022-10-29T13:20:39.368Z,6.45
2022-10-29T13:26:02.549Z,5.60
2022-10-29T13:31:24.336Z,5.38
2022-10-29T13:36:46.213Z,5.22
2022-10-29T13:42:13.037Z,5.45
2022-10-29T13:47:35.245Z,5.30
2022-10-29T13:53:00.757Z,5.30
2022-10-29T13:58:32.092Z,4.68
2022-10-29T14:04:22.239Z,5.00
2022-10-29T14:09:48.432Z,4.60
2022-10-29T14:15:13.266Z,5.28
2022-10-29T14:20:35.086Z,5.60
2022-10-29T14:25:59.463Z,4.80
2022-10-29T14:31:23.283Z,4.95
2022-10-29T14:36:48.140Z,5.00
2022-10-29T14:47:51.383Z,6.17
2022-10-29T14:53:31.525Z,6.45
2022-10-29T14:58:53.479Z,6.18
2022-10-29T15:04:33.287Z,5.95
2022-10-29T15:10:25.789Z,5.95
2022-10-29T15:16:02.035Z,6.82
2022-10-29T15:21:26.497Z,7.75
2022-10-29T15:26:52.890Z,6.50
2022-10-29T15:32:16.977Z,7.28
2022-10-29T15:37:43.281Z,11.00
2022-10-29T15:43:27.212Z,7.60
2022-10-29T15:48:49.049Z,7.47
2022-10-29T15:54:13.655Z,7.95
2022-10-29T15:59:35.471Z,7.70
2022-10-29T16:04:57.346Z,8.20
2022-10-29T16:10:21.463Z,9.02
2022-10-29T16:15:44.379Z,8.43
2022-10-29T16:21:06.719Z,8.95
2022-10-29T16:26:28.567Z,8.25
2022-10-29T16:31:50.412Z,8.70
2022-10-29T16:37:19.463Z,8.55
2022-10-29T16:42:41.827Z,7.50
2022-10-29T16:48:03.853Z,8.38
2022-10-29T16:53:25.766Z,7.68
2022-10-29T16:58:47.615Z,8.23
2022-10-29T17:04:09.602Z,9.20
2022-10-29T17:09:31.520Z,9.32
2022-10-29T17:14:53.354Z,8.23
2022-10-29T17:20:15.346Z,8.77
2022-10-29T17:25:40.293Z,9.05
2022-10-29T17:31:05.323Z,7.63
2022-10-29T17:36:27.137Z,7.65
2022-10-29T17:41:49.812Z,7.95
2022-10-29T17:47:11.658Z,7.95
2022-10-29T17:52:33.492Z,8.05
2022-10-29T17:57:55.713Z,16.33
2022-10-29T18:03:18.412Z,7.50
2022-10-29T18:08:42.035Z,7.60
2022-10-29T18:14:03.942Z,7.45
2022-10-29T18:19:25.772Z,7.88
2022-10-29T18:24:47.630Z,8.10
2022-10-29T18:30:09.816Z,6.85
2022-10-29T18:35:31.649Z,7.72
2022-10-29T18:40:55.091Z,7.82
2022-10-29T18:46:17.964Z,8.35
2022-10-29T18:51:40.086Z,7.40
2022-10-29T18:57:01.914Z,8.10
2022-10-29T19:02:23.944Z,7.35
2022-10-29T19:07:45.878Z,7.30
2022-10-29T19:13:08.279Z,8.10
2022-10-29T19:18:31.395Z,7.05
2022-10-29T19:23:57.834Z,7.15
2022-10-29T19:29:19.679Z,8.73
2022-10-29T19:34:41.492Z,8.13
2022-10-29T19:40:03.919Z,7.53
2022-10-29T19:45:25.781Z,7.40
2022-10-29T19:50:51.620Z,7.43
2022-10-29T19:56:15.675Z,8.70
2022-10-29T20:01:37.675Z,7.85
2022-10-29T20:06:59.601Z,7.55
2022-10-29T20:12:21.433Z,8.98
2022-10-29T20:17:43.267Z,8.40
2022-10-29T20:23:05.183Z,7.40
2022-10-29T20:28:27.023Z,8.10
2022-10-29T20:33:53.432Z,8.68
2022-10-29T20:39:15.725Z,8.40
2022-10-29T20:44:37.630Z,9.23
2022-10-29T20:49:59.490Z,9.25
2022-10-29T20:55:21.370Z,9.00
2022-10-29T21:00:43.311Z,9.50
2022-10-29T21:06:09.943Z,10.63
2022-10-29T21:11:34.270Z,9.13
2022-10-29T21:16:56.107Z,9.38
2022-10-29T21:22:17.924Z,9.30
2022-10-29T21:27:39.806Z,9.15
2022-10-29T21:33:01.619Z,8.90
2022-10-29T21:38:25.008Z,9.48
2022-10-29T21:43:46.832Z,9.07
2022-10-29T21:49:08.728Z,9.32
2022-10-29T21:54:30.592Z,10.02
2022-10-29T21:59:52.392Z,10.77
2022-10-29T22:05:14.257Z,10.38
2022-10-29T22:10:36.094Z,10.75
2022-10-29T22:15:58.308Z,10.95
2022-10-29T22:21:25.530Z,11.55
2022-10-29T22:26:47.338Z,12.77
2022-10-29T22:32:09.199Z,13.73
2022-10-29T22:37:31.040Z,12.82
2022-10-29T22:42:52.852Z,13.02
2022-10-29T22:48:14.672Z,13.13
2022-10-29T22:53:36.543Z,13.50
2022-10-29T22:58:59.683Z,12.73
2022-10-29T23:04:21.546Z,12.38
2022-10-29T23:09:43.337Z,13.60
2022-10-29T23:15:05.621Z,15.48
2022-10-29T23:20:27.419Z,13.60
2022-10-29T23:25:49.237Z,13.80
2022-10-29T23:31:14.140Z,13.77
2022-10-29T23:36:35.957Z,13.95
2022-10-29T23:41:57.760Z,15.45
2022-10-29T23:47:19.584Z,15.32
2022-10-29T23:52:41.439Z,16.48
2022-10-29T23:58:04.126Z,15.30
